createdAt,value
2018-12-20T00:00:09.695Z,96236.89
2018-12-20T00:02:37.262Z,96241.17
2018-12-20T00:05:05.592Z,96237.97
2018-12-20T00:07:33.260Z,96242.85
2018-12-20T00:10:01.020Z,96250.20
2018-12-20T00:12:29.398Z,96251.39
2018-12-20T00:14:56.858Z,96255.64
2018-12-20T00:17:30.358Z,96247.70
2018-12-20T00:19:57.768Z,96248.53
2018-12-20T00:22:25.853Z,96236.78
2018-12-20T00:24:53.543Z,96236.30
2018-12-20T00:27:22.031Z,96242.97
2018-12-20T00:29:49.722Z,96248.42
2018-12-20T00:32:17.410Z,96251.14
2018-12-20T00:34:44.956Z,96251.14
2018-12-20T00:37:12.460Z,96244.39
2018-12-20T00:39:40.393Z,96244.28
2018-12-20T00:42:08.477Z,96248.05
2018-12-20T00:44:37.523Z,96249.36
2018-12-20T00:47:05.251Z,96240.22
2018-12-20T00:49:32.643Z,96249.36
2018-12-20T00:52:00.127Z,96248.42
2018-12-20T00:54:27.722Z,96246.52
2018-12-20T00:56:55.472Z,96246.75
2018-12-20T00:59:23.077Z,96248.42
2018-12-20T01:01:51.200Z,96256.48
2018-12-20T01:04:18.763Z,96258.87
2018-12-20T01:06:46.161Z,96263.48
2018-12-20T01:09:13.571Z,96270.73
2018-12-20T01:11:41.873Z,96267.86
2018-12-20T01:14:09.698Z,96271.66
2018-12-20T01:16:37.658Z,96274.98
2018-12-20T01:19:05.246Z,96280.58
2018-12-20T01:21:32.672Z,96279.16
2018-12-20T01:24:00.194Z,96279.61
2018-12-20T01:26:27.748Z,96282.00
2018-12-20T01:28:55.169Z,96282.33
2018-12-20T01:31:22.887Z,96292.66
2018-12-20T01:33:50.555Z,96291.25
2018-12-20T01:36:18.071Z,96298.00
2018-12-20T01:38:45.636Z,96292.66
2018-12-20T01:41:13.219Z,96292.18
2018-12-20T01:43:41.116Z,96294.80
2018-12-20T01:46:08.868Z,96294.80
2018-12-20T01:48:36.436Z,96299.31
2018-12-20T01:51:04.162Z,96298.86
2018-12-20T01:53:32.005Z,96303.22
2018-12-20T01:55:59.734Z,96302.40
2018-12-20T01:58:27.779Z,96295.50
2018-12-20T02:00:55.337Z,96294.68
2018-12-20T02:03:22.874Z,96309.05
2018-12-20T02:05:50.398Z,96303.00
2018-12-20T02:08:17.881Z,96302.17
2018-12-20T02:10:45.283Z,96314.38
2018-12-20T02:13:12.966Z,96303.93
2018-12-20T02:15:41.347Z,96314.86
2018-12-20T02:18:08.932Z,96318.78
2018-12-20T02:20:37.301Z,96322.58
2018-12-20T02:23:05.080Z,96321.61
2018-12-20T02:25:33.382Z,96328.52
2018-12-20T02:28:00.780Z,96326.27
2018-12-20T02:30:28.598Z,96325.91
2018-12-20T02:32:56.563Z,96328.89
2018-12-20T02:35:24.758Z,96325.91
2018-12-20T02:37:52.697Z,96331.95
2018-12-20T02:40:20.343Z,96321.50
2018-12-20T02:42:47.763Z,96317.70
2018-12-20T02:45:15.194Z,96319.86
2018-12-20T02:47:42.609Z,96324.97
2018-12-20T02:50:10.099Z,96320.91
2018-12-20T02:52:37.647Z,96322.70
2018-12-20T02:55:05.337Z,96308.45
2018-12-20T02:57:32.793Z,96313.78
2018-12-20T03:00:00.324Z,96300.39
2018-12-20T03:02:27.905Z,96306.55
2018-12-20T03:04:56.485Z,96309.30
2018-12-20T03:07:24.229Z,96304.90
2018-12-20T03:09:52.440Z,96305.50
2018-12-20T03:12:19.968Z,96309.41
2018-12-20T03:14:47.784Z,96302.88
2018-12-20T03:17:15.403Z,96296.70
2018-12-20T03:19:42.956Z,96294.45
2018-12-20T03:22:10.645Z,96285.05
2018-12-20T03:24:38.339Z,96282.92
2018-12-20T03:27:05.835Z,96290.05
2018-12-20T03:29:33.416Z,96294.90
2018-12-20T03:32:00.928Z,96289.67
2018-12-20T03:34:28.405Z,96297.39
2018-12-20T03:36:56.109Z,96297.63
2018-12-20T03:39:23.542Z,96309.15
2018-12-20T03:41:51.532Z,96300.94
2018-12-20T03:44:19.493Z,96311.16
2018-12-20T03:46:47.036Z,96314.24
2018-12-20T03:49:14.524Z,96311.74
2018-12-20T03:51:43.058Z,96312.67
2018-12-20T03:54:10.784Z,96316.09
2018-12-20T03:56:38.323Z,96320.72
2018-12-20T03:59:05.950Z,96328.45
2018-12-20T04:01:33.343Z,96318.36
2018-12-20T04:12:32.796Z,96326.53
2018-12-20T04:15:01.069Z,96325.59
2018-12-20T04:17:28.683Z,96320.70
2018-12-20T04:19:56.577Z,96321.41
2018-12-20T04:22:24.033Z,96323.08
2018-12-20T04:24:51.481Z,96328.42
2018-12-20T04:27:19.203Z,96321.67
2018-12-20T04:29:46.660Z,96321.08
2018-12-20T04:32:14.196Z,96327.73
2018-12-20T04:34:41.713Z,96324.53
2018-12-20T04:37:09.119Z,96325.02
2018-12-20T04:39:36.910Z,96334.77
2018-12-20T04:42:04.899Z,96339.02
2018-12-20T04:44:33.474Z,96352.09
2018-12-20T04:47:01.271Z,96348.42
2018-12-20T04:49:29.439Z,96342.22
2018-12-20T04:51:57.083Z,96342.22
2018-12-20T04:54:24.864Z,96353.65
2018-12-20T04:56:52.847Z,96357.08
2018-12-20T04:59:20.936Z,96357.79
2018-12-20T05:01:48.381Z,96358.28
2018-12-20T05:04:16.213Z,96368.13
2018-12-20T05:06:43.838Z,96359.80
2018-12-20T05:09:14.655Z,96368.02
2018-12-20T05:11:44.284Z,96380.12
2018-12-20T05:14:12.043Z,96377.88
2018-12-20T05:16:39.948Z,96383.55
2018-12-20T05:19:07.692Z,96382.62
2018-12-20T05:21:35.298Z,96388.19
2018-12-20T05:24:02.693Z,96382.13
2018-12-20T05:26:30.216Z,96388.67
2018-12-20T05:28:57.858Z,96394.38
2018-12-20T05:31:25.392Z,96396.51
2018-12-20T05:33:53.095Z,96397.33
2018-12-20T05:36:20.751Z,96387.84
2018-12-20T05:38:48.198Z,96383.92
2018-12-20T05:41:15.695Z,96392.95
2018-12-20T05:43:43.361Z,96394.27
2018-12-20T05:46:10.975Z,96395.91
2018-12-20T05:48:38.734Z,96395.58
2018-12-20T05:51:06.326Z,96394.27
2018-12-20T05:53:34.042Z,96385.11
2018-12-20T05:56:01.656Z,96393.89
2018-12-20T05:58:29.055Z,96400.55
2018-12-20T06:00:56.444Z,96397.00
2018-12-20T06:03:23.940Z,96398.90
2018-12-20T06:05:51.392Z,96402.00
2018-12-20T06:08:18.853Z,96393.78
2018-12-20T06:10:46.564Z,96394.16
2018-12-20T06:13:14.145Z,96390.80
2018-12-20T06:15:41.636Z,96400.09
2018-12-20T06:18:09.352Z,96398.91
2018-12-20T06:20:36.744Z,96403.65
2018-12-20T06:23:04.295Z,96410.44
2018-12-20T06:25:31.809Z,96402.83
2018-12-20T06:27:59.216Z,96408.99
2018-12-20T06:30:26.608Z,96410.44
2018-12-20T06:32:54.320Z,96408.77
2018-12-20T06:35:21.725Z,96419.81
2018-12-20T06:37:49.126Z,96412.58
2018-12-20T06:40:16.620Z,96412.69
2018-12-20T06:42:44.017Z,96413.66
2018-12-20T06:45:11.412Z,96420.64
2018-12-20T06:47:38.924Z,96431.95
2018-12-20T06:50:06.645Z,96421.49
2018-12-20T06:52:34.038Z,96422.42
2018-12-20T06:55:02.257Z,96428.02
2018-12-20T06:57:29.659Z,96431.46
2018-12-20T06:59:57.145Z,96428.73
2018-12-20T07:02:24.902Z,96427.55
2018-12-20T07:04:52.288Z,96429.90
2018-12-20T07:07:19.699Z,96428.03
2018-12-20T07:09:47.363Z,96435.61
2018-12-20T07:12:14.766Z,96443.23
2018-12-20T07:14:42.379Z,96443.34
2018-12-20T07:17:10.031Z,96436.80
2018-12-20T07:19:37.427Z,96446.89
2018-12-20T07:22:04.815Z,96443.94
2018-12-20T07:24:32.333Z,96440.02
2018-12-20T07:26:59.718Z,96439.16
2018-12-20T07:29:27.107Z,96445.70
2018-12-20T07:31:54.608Z,96446.89
2018-12-20T07:34:22.007Z,96444.27
2018-12-20T07:36:49.474Z,96433.70
2018-12-20T07:39:16.905Z,96437.14
2018-12-20T07:41:44.297Z,96442.63
2018-12-20T07:44:11.685Z,96442.48
2018-12-20T07:46:39.118Z,96452.94
2018-12-20T07:49:06.505Z,96449.98
2018-12-20T07:51:33.903Z,96453.91
2018-12-20T07:54:01.685Z,96455.92
2018-12-20T07:56:29.111Z,96460.22
2018-12-20T07:58:56.507Z,96458.77
2018-12-20T08:01:24.083Z,96455.22
2018-12-20T08:03:52.097Z,96466.87
2018-12-20T08:06:19.503Z,96461.16
2018-12-20T08:08:47.015Z,96465.79
2018-12-20T08:11:14.799Z,96470.30
2018-12-20T08:13:42.179Z,96470.19
2018-12-20T08:16:09.677Z,96475.42
2018-12-20T08:18:37.073Z,96472.20
2018-12-20T08:21:04.519Z,96476.12
2018-12-20T08:23:32.103Z,96482.30
2018-12-20T08:25:59.491Z,96492.04
2018-12-20T08:28:26.884Z,96479.19
2018-12-20T08:30:54.680Z,96479.66
2018-12-20T08:33:22.082Z,96479.89
2018-12-20T08:35:49.476Z,96472.41
2018-12-20T08:38:17.149Z,96471.44
2018-12-20T08:40:44.534Z,96478.46
2018-12-20T08:43:11.934Z,96484.41
2018-12-20T08:45:39.619Z,96479.39
2018-12-20T08:48:07.026Z,96483.32
2018-12-20T08:50:34.412Z,96485.48
2018-12-20T08:53:01.912Z,96493.67
2018-12-20T08:55:29.300Z,96497.48
2018-12-20T08:57:56.698Z,96500.31
2018-12-20T09:00:24.180Z,96507.56
2018-12-20T09:02:51.576Z,96494.03
2018-12-20T09:05:18.968Z,96495.56
2018-12-20T09:07:46.386Z,96503.30
2018-12-20T09:10:13.849Z,96504.71
2018-12-20T09:12:41.248Z,96511.14
2018-12-20T09:15:08.900Z,96514.92
2018-12-20T09:17:36.304Z,96518.13
2018-12-20T09:20:05.124Z,96511.14
2018-12-20T09:22:32.716Z,96515.89
2018-12-20T09:25:00.104Z,96514.58
2018-12-20T09:27:27.522Z,96526.69
2018-12-20T09:29:55.176Z,96533.00
2018-12-20T09:32:22.564Z,96525.86
2018-12-20T09:34:49.968Z,96527.64
2018-12-20T09:37:17.544Z,96533.20
2018-12-20T09:39:44.948Z,96532.70
2018-12-20T09:42:12.411Z,96536.39
2018-12-20T09:44:40.133Z,96527.42
2018-12-20T09:47:13.087Z,96536.45
2018-12-20T09:49:40.550Z,96529.64
2018-12-20T09:52:07.942Z,96532.02
2018-12-20T09:54:35.335Z,96534.63
2018-12-20T09:57:03.059Z,96536.15
2018-12-20T09:59:30.444Z,96535.55
2018-12-20T10:01:57.840Z,96535.76
2018-12-20T10:04:25.616Z,96530.41
2018-12-20T10:06:53.133Z,96532.30
2018-12-20T10:09:20.529Z,96528.00
2018-12-20T10:11:48.192Z,96524.77
2018-12-20T10:14:15.587Z,96524.50
2018-12-20T10:16:42.991Z,96521.16
2018-12-20T10:19:10.532Z,96516.98
2018-12-20T10:21:37.923Z,96512.77
2018-12-20T10:24:05.324Z,96510.40
2018-12-20T10:26:32.936Z,96514.42
2018-12-20T10:29:00.331Z,96521.40
2018-12-20T10:31:27.709Z,96521.28
2018-12-20T10:33:55.303Z,96520.05
2018-12-20T10:36:22.761Z,96518.13
2018-12-20T10:38:50.154Z,96511.13
2018-12-20T10:41:17.590Z,96513.25
2018-12-20T10:43:44.993Z,96511.34
2018-12-20T10:46:12.396Z,96510.52
2018-12-20T10:48:39.813Z,96514.90
2018-12-20T10:51:07.217Z,96511.25
2018-12-20T10:53:34.713Z,96507.07
2018-12-20T10:56:02.308Z,96502.44
2018-12-20T10:58:29.709Z,96501.41
2018-12-20T11:01:02.716Z,96502.34
2018-12-20T11:03:35.670Z,96501.16
2018-12-20T11:06:05.029Z,96496.53
2018-12-20T11:08:32.684Z,96502.14
2018-12-20T11:11:04.556Z,96503.78
2018-12-20T11:13:31.948Z,96499.23
2018-12-20T11:15:59.340Z,96492.93
2018-12-20T11:18:26.933Z,96491.83
2018-12-20T11:20:54.328Z,96497.65
2018-12-20T11:23:21.917Z,96484.98
2018-12-20T11:25:49.355Z,96481.76
2018-12-20T11:28:16.811Z,96475.33
2018-12-20T11:30:44.271Z,96491.27
2018-12-20T11:33:11.872Z,96492.66
2018-12-20T11:35:40.156Z,96489.19
2018-12-20T11:38:07.564Z,96486.31
2018-12-20T11:40:34.980Z,96485.08
2018-12-20T11:43:02.370Z,96489.80
2018-12-20T11:45:29.763Z,96487.95
2018-12-20T11:47:57.339Z,96492.33
2018-12-20T11:50:24.731Z,96487.50
2018-12-20T11:52:52.128Z,96486.63
2018-12-20T11:55:19.909Z,96481.25
2018-12-20T11:57:47.309Z,96481.13
2018-12-20T12:00:14.788Z,96479.33
2018-12-20T12:02:42.378Z,96481.45
2018-12-20T12:05:10.687Z,96473.33
2018-12-20T12:07:38.482Z,96471.41
2018-12-20T12:10:06.797Z,96481.77
2018-12-20T12:12:34.199Z,96482.23
2018-12-20T12:15:02.383Z,96478.30
2018-12-20T12:17:29.823Z,96473.17
2018-12-20T12:19:57.298Z,96475.72
2018-12-20T12:22:24.838Z,96475.88
2018-12-20T12:24:52.464Z,96478.50
2018-12-20T12:27:19.864Z,96485.97
2018-12-20T12:29:47.303Z,96474.44
2018-12-20T12:32:14.831Z,96477.65
2018-12-20T12:34:42.299Z,96475.62
2018-12-20T12:37:09.698Z,96472.34
2018-12-20T12:39:37.307Z,96472.02
2018-12-20T12:42:05.027Z,96472.33
2018-12-20T12:44:32.427Z,96474.80
2018-12-20T12:46:59.987Z,96472.17
2018-12-20T12:49:27.523Z,96476.36
2018-12-20T12:51:54.916Z,96479.50
2018-12-20T12:54:22.351Z,96482.33
2018-12-20T12:56:49.807Z,96474.01
2018-12-20T12:59:18.109Z,96476.49
2018-12-20T13:01:45.647Z,96473.44
2018-12-20T13:04:13.535Z,96469.25
2018-12-20T13:06:41.323Z,96470.14
2018-12-20T13:09:08.848Z,96469.22
2018-12-20T13:11:36.543Z,96470.08
2018-12-20T13:14:04.218Z,96468.33
2018-12-20T13:16:32.122Z,96471.31
2018-12-20T13:18:59.537Z,96471.99
2018-12-20T13:21:26.933Z,96466.61
2018-12-20T13:23:54.500Z,96463.57
2018-12-20T13:26:21.969Z,96472.13
2018-12-20T13:28:49.373Z,96468.14
2018-12-20T13:31:16.851Z,96470.51
2018-12-20T13:33:44.249Z,96472.18
2018-12-20T13:36:11.655Z,96482.53
2018-12-20T13:38:39.247Z,96480.24
2018-12-20T13:41:06.747Z,96483.20
2018-12-20T13:43:34.223Z,96479.94
2018-12-20T13:46:01.819Z,96481.81
2018-12-20T13:48:29.207Z,96480.17
2018-12-20T13:50:56.609Z,96485.22
2018-12-20T13:53:24.397Z,96477.78
2018-12-20T13:55:51.788Z,96480.41
2018-12-20T13:58:19.194Z,96483.03
2018-12-20T14:00:46.969Z,96483.44
2018-12-20T14:03:14.378Z,96482.86
2018-12-20T14:05:41.782Z,96487.66
2018-12-20T14:08:09.347Z,96496.49
2018-12-20T14:10:36.758Z,96505.97
2018-12-20T14:13:05.259Z,96511.81
2018-12-20T14:15:32.837Z,96516.11
2018-12-20T14:18:00.237Z,96518.08
2018-12-20T14:20:27.634Z,96516.77
2018-12-20T14:22:55.112Z,96515.23
2018-12-20T14:25:22.507Z,96525.94
2018-12-20T14:27:49.896Z,96523.94
2018-12-20T14:30:17.363Z,96524.87
2018-12-20T14:32:44.792Z,96523.94
2018-12-20T14:35:12.191Z,96527.95
2018-12-20T14:37:39.941Z,96526.77
2018-12-20T14:40:08.891Z,96521.93
2018-12-20T14:42:37.771Z,96520.54
2018-12-20T14:45:05.871Z,96519.23
2018-12-20T14:47:33.324Z,96524.11
2018-12-20T14:50:00.720Z,96527.66
2018-12-20T14:52:28.268Z,96522.66
2018-12-20T14:54:56.096Z,96533.24
2018-12-20T14:57:23.492Z,96533.95
2018-12-20T14:59:51.149Z,96533.08
2018-12-20T15:02:18.604Z,96530.04
2018-12-20T15:04:46.148Z,96534.05
2018-12-20T15:07:13.737Z,96534.97
2018-12-20T15:09:41.140Z,96532.61
2018-12-20T15:12:08.596Z,96529.56
2018-12-20T15:14:36.205Z,96535.45
2018-12-20T15:17:04.307Z,96534.86
2018-12-20T15:19:31.711Z,96532.87
2018-12-20T15:21:59.291Z,96532.08
2018-12-20T15:24:26.706Z,96534.23
2018-12-20T15:26:54.115Z,96534.38
2018-12-20T15:29:21.876Z,96536.56
2018-12-20T15:31:53.334Z,96534.66
2018-12-20T15:34:18.688Z,96540.98
2018-12-20T15:36:46.144Z,96538.98
2018-12-20T15:39:13.838Z,96538.61
2018-12-20T15:41:41.244Z,96550.51
2018-12-20T15:44:08.746Z,96547.89
2018-12-20T15:46:36.148Z,96548.26
2018-12-20T15:49:04.248Z,96555.63
2018-12-20T15:51:33.483Z,96554.92
2018-12-20T15:54:01.117Z,96552.54
2018-12-20T15:56:28.622Z,96557.07
2018-12-20T15:58:56.179Z,96555.66
2018-12-20T16:01:23.627Z,96555.55
2018-12-20T16:03:51.106Z,96551.74
2018-12-20T16:06:18.752Z,96551.64
2018-12-20T16:08:46.215Z,96555.23
2018-12-20T16:11:14.349Z,96551.91
2018-12-20T16:13:42.202Z,96545.81
2018-12-20T16:16:09.608Z,96553.81
2018-12-20T16:18:37.015Z,96546.41
2018-12-20T16:21:04.879Z,96554.64
2018-12-20T16:23:32.277Z,96560.09
2018-12-20T16:26:00.172Z,96574.16
2018-12-20T16:28:27.635Z,96577.81
2018-12-20T16:30:55.152Z,96575.91
2018-12-20T16:33:22.655Z,96573.55
2018-12-20T16:35:50.202Z,96571.63
2018-12-20T16:38:17.599Z,96571.48
2018-12-20T16:40:45.791Z,96563.29
2018-12-20T16:43:13.245Z,96567.55
2018-12-20T16:45:41.111Z,96565.80
2018-12-20T16:48:08.769Z,96559.95
2018-12-20T16:50:36.281Z,96561.27
2018-12-20T16:53:03.739Z,96556.73
2018-12-20T16:55:31.150Z,96565.90
2018-12-20T16:57:58.706Z,96555.77
2018-12-20T17:00:26.135Z,96557.07
2018-12-20T17:02:53.622Z,96563.16
2018-12-20T17:05:21.395Z,96563.02
2018-12-20T17:07:48.793Z,96557.66
2018-12-20T17:10:16.198Z,96557.91
2018-12-20T17:12:45.188Z,96566.48
2018-12-20T17:15:12.813Z,96571.11
2018-12-20T17:17:40.209Z,96570.84
2018-12-20T17:20:08.689Z,96573.83
2018-12-20T17:22:36.088Z,96578.09
2018-12-20T17:25:04.340Z,96581.42
2018-12-20T17:27:31.868Z,96576.19
2018-12-20T17:29:59.268Z,96579.17
2018-12-20T17:32:26.684Z,96583.44
2018-12-20T17:34:54.111Z,96582.01
2018-12-20T17:37:21.538Z,96589.38
2018-12-20T17:39:48.938Z,96590.70
2018-12-20T17:42:16.622Z,96602.03
2018-12-20T17:44:44.016Z,96597.01
2018-12-20T17:47:11.540Z,96594.39
2018-12-20T17:49:38.974Z,96591.77
2018-12-20T17:52:06.364Z,96592.48
2018-12-20T17:54:34.780Z,96593.58
2018-12-20T17:57:02.397Z,96586.33
2018-12-20T17:59:30.001Z,96597.29
2018-12-20T18:01:57.479Z,96588.84
2018-12-20T18:04:25.164Z,96582.19
2018-12-20T18:06:52.616Z,96589.79
2018-12-20T18:09:20.712Z,96597.91
2018-12-20T18:11:48.249Z,96593.02
2018-12-20T18:14:16.052Z,96598.38
2018-12-20T18:16:43.660Z,96594.23
2018-12-20T18:19:12.372Z,96596.84
2018-12-20T18:21:40.129Z,96603.05
2018-12-20T18:24:07.570Z,96601.75
2018-12-20T18:26:35.144Z,96599.36
2018-12-20T18:29:02.560Z,96598.05
2018-12-20T18:31:29.958Z,96595.80
2018-12-20T18:33:57.728Z,96598.76
2018-12-20T18:36:25.255Z,96596.25
2018-12-20T18:38:52.650Z,96593.51
2018-12-20T18:41:20.184Z,96616.14
2018-12-20T18:43:47.596Z,96602.30
2018-12-20T18:46:15.198Z,96608.85
2018-12-20T18:48:42.866Z,96604.47
2018-12-20T18:51:10.254Z,96612.55
2018-12-20T18:53:37.683Z,96616.25
2018-12-20T18:56:05.458Z,96616.95
2018-12-20T18:58:32.831Z,96635.28
2018-12-20T19:01:00.232Z,96623.39
2018-12-20T19:03:27.686Z,96621.33
2018-12-20T19:05:55.103Z,96626.45
2018-12-20T19:08:22.532Z,96625.84
2018-12-20T19:10:49.951Z,96638.34
2018-12-20T19:13:17.399Z,96633.95
2018-12-20T19:15:44.937Z,96631.09
2018-12-20T19:18:12.385Z,96640.25
2018-12-20T19:20:39.984Z,96645.16
2018-12-20T19:23:07.372Z,96655.26
2018-12-20T19:25:35.134Z,96648.83
2018-12-20T19:28:02.637Z,96643.14
2018-12-20T19:30:30.028Z,96647.41
2018-12-20T19:32:57.897Z,96647.41
2018-12-20T19:35:25.289Z,96646.92
2018-12-20T19:37:53.082Z,96651.70
2018-12-20T19:40:20.582Z,96654.55
2018-12-20T19:42:48.282Z,96657.05
2018-12-20T19:45:15.694Z,96653.12
2018-12-20T19:47:43.318Z,96654.43
2018-12-20T19:50:10.701Z,96652.63
2018-12-20T19:52:38.087Z,96655.14
2018-12-20T19:55:06.057Z,96658.24
2018-12-20T19:57:33.497Z,96655.73
2018-12-20T20:00:00.925Z,96657.28
2018-12-20T20:02:28.515Z,96670.37
2018-12-20T20:04:55.945Z,96666.45
2018-12-20T20:07:24.014Z,96664.31
2018-12-20T20:09:51.903Z,96668.36
2018-12-20T20:12:19.314Z,96670.16
2018-12-20T20:14:46.714Z,96661.47
2018-12-20T20:17:14.383Z,96666.70
2018-12-20T20:19:41.900Z,96660.39
2018-12-20T20:22:09.367Z,96661.36
2018-12-20T20:24:37.143Z,96666.00
2018-12-20T20:27:04.690Z,96666.12
2018-12-20T20:29:32.101Z,96668.96
2018-12-20T20:31:59.555Z,96649.33
2018-12-20T20:34:27.443Z,96661.48
2018-12-20T20:36:54.848Z,96658.27
2018-12-20T20:39:22.516Z,96655.31
2018-12-20T20:41:50.292Z,96647.80
2018-12-20T20:44:17.700Z,96661.59
2018-12-20T20:46:45.124Z,96663.62
2018-12-20T20:49:12.589Z,96672.67
2018-12-20T20:51:40.704Z,96661.86
2018-12-20T20:54:08.389Z,96661.97
2018-12-20T20:56:35.810Z,96670.77
2018-12-20T20:59:03.335Z,96663.62
2018-12-20T21:01:30.857Z,96677.79
2018-12-20T21:04:03.497Z,96677.91
2018-12-20T21:06:27.701Z,96684.11
2018-12-20T21:08:55.297Z,96700.41
2018-12-20T21:11:22.733Z,96694.46
2018-12-20T21:13:50.152Z,96692.19
2018-12-20T21:16:17.852Z,96693.72
2018-12-20T21:18:45.952Z,96705.98
2018-12-20T21:21:13.426Z,96702.17
2018-12-20T21:23:40.964Z,96709.69
2018-12-20T21:26:08.832Z,96719.67
2018-12-20T21:28:36.237Z,96718.36
2018-12-20T21:31:03.992Z,96708.98
2018-12-20T21:33:31.813Z,96713.24
2018-12-20T21:35:59.430Z,96720.50
2018-12-20T21:38:27.124Z,96718.14
2018-12-20T21:40:54.524Z,96717.06
2018-12-20T21:43:21.913Z,96720.39
2018-12-20T21:45:49.727Z,96720.98
2018-12-20T21:48:17.140Z,96717.06
2018-12-20T21:50:45.022Z,96716.23
2018-12-20T21:53:12.672Z,96724.09
2018-12-20T21:55:40.158Z,96725.63
2018-12-20T21:58:07.561Z,96723.38
2018-12-20T22:00:35.262Z,96719.91
2018-12-20T22:03:02.662Z,96710.74
2018-12-20T22:05:30.060Z,96716.83
2018-12-20T22:07:57.516Z,96718.59
2018-12-20T22:10:24.916Z,96724.92
2018-12-20T22:12:52.306Z,96727.77
2018-12-20T22:15:19.960Z,96726.00
2018-12-20T22:17:47.368Z,96722.78
2018-12-20T22:20:14.904Z,96726.71
2018-12-20T22:22:43.393Z,96728.62
2018-12-20T22:25:12.036Z,96735.16
2018-12-20T22:27:39.504Z,96743.95
2018-12-20T22:30:08.478Z,96741.33
2018-12-20T22:32:35.873Z,96740.51
2018-12-20T22:35:03.964Z,96738.72
2018-12-20T22:37:31.913Z,96753.72
2018-12-20T22:39:59.312Z,96748.00
2018-12-20T22:42:26.704Z,96749.68
2018-12-20T22:44:54.288Z,96755.85
2018-12-20T22:47:22.060Z,96754.91
2018-12-20T22:49:49.460Z,96748.25
2018-12-20T22:52:16.970Z,96740.14
2018-12-20T22:54:44.863Z,96748.59
2018-12-20T22:57:12.263Z,96754.41
2018-12-20T22:59:39.943Z,96749.18
2018-12-20T23:02:07.395Z,96749.18
2018-12-20T23:04:35.124Z,96745.14
2018-12-20T23:07:02.716Z,96746.45
2018-12-20T23:09:30.224Z,96747.87
2018-12-20T23:11:57.625Z,96740.50
2018-12-20T23:14:25.204Z,96736.20
2018-12-20T23:16:53.849Z,96735.14
2018-12-20T23:19:21.695Z,96731.92
2018-12-20T23:21:49.134Z,96730.50
2018-12-20T23:24:16.524Z,96723.45
2018-12-20T23:26:43.929Z,96733.70
2018-12-20T23:29:11.353Z,96732.16
2018-12-20T23:31:39.540Z,96725.83
2018-12-20T23:34:07.246Z,96725.12
2018-12-20T23:36:34.786Z,96725.23
2018-12-20T23:39:02.181Z,96738.20
2018-12-20T23:41:29.589Z,96734.02
2018-12-20T23:43:57.143Z,96735.11
2018-12-20T23:46:24.597Z,96724.05
2018-12-20T23:48:52.570Z,96730.97
2018-12-20T23:51:20.223Z,96717.29
2018-12-20T23:53:47.911Z,96706.82
2018-12-20T23:56:15.365Z,96712.17
2018-12-20T23:58:42.905Z,96725.49
